ZYTL Airport Information

Runway Information
Runway 10 Length 10827 ft width 148 ft
Elevation 105 ft Threshold 650 ft Heading 96
Runway 28 Length 10827 ft Width 148 ft
Elevation 85 ft Threshold 320 ft Heading 276
Airport Frequencies
Type APP Name DALIAN APP Frequency 123.85 MHZ
Type ATIS Name ATIS Frequency 126.65 MHZ
Type TWR Name DALIAN TWR Frequency 118.25 MHZ
Airport Navaids
Type VOR-DME Name Dalian Frequency 112300 KHZ
Type NDB Name Fujiazhuang Frequency 414 KHZ
Airport Weather Information & NOTAM
ADDS - METARS form results

(1547 UTC 04 April 2020)
Data provider http://aviationweather.gov/metar/data/
 
METAR text: ZYTL 041530Z 29002MPS CAVOK 04/00 Q1030 NOSIG
Conditions at: ZYTL (DALIAN/DAIREN/LU, CN) observed 1530 UTC 04 April 2020
Temperature: 4.0°C (39°F)
Dewpoint: 0.0°C (32°F) [RH = 75%]
Pressure (altimeter): 30.41 inches Hg (1030.0 mb)
Winds: from the WNW (290 degrees) at 5 MPH (4 knots; 2.1 m/s)
Visibility: 6 or more miles (10+ km)
Ceiling: ceiling and visibility are OK
Clouds: unknown
Weather: no significant weather observed at this time

METAR text: ZYTL 041500Z 28003MPS CAVOK 04/M00 Q1030 NOSIG
Conditions at: ZYTL (DALIAN/DAIREN/LU, CN) observed 1500 UTC 04 April 2020
Temperature: 4.0°C (39°F)
Dewpoint: 0.0°C (32°F) [RH = 75%]
Pressure (altimeter): 30.41 inches Hg (1030.0 mb)
Winds: from the W (280 degrees) at 7 MPH (6 knots; 3.1 m/s)
Visibility: 6 or more miles (10+ km)
Ceiling: ceiling and visibility are OK
Clouds: unknown
Weather: no significant weather observed at this time

Forecast for: ZYTL (DALIAN/DAIREN/LU, CN)
Text: TAF ZYTL 040902Z 0412/0512 28004MPS 6000 FEW040 TX13/0506Z TN05/0422Z
Forecast period: 1200 UTC 04 April 2020 to 1200 UTC 05 April 2020
Forecast type: FROM: standard forecast or significant change
Winds: from the W (280 degrees) at 9 MPH (8 knots; 4.1 m/s)
Visibility: 4 miles (6 km)
Ceiling: at least 12,000 feet AGL
Clouds: few clouds at 4000 feet AGL
Weather: no significant weather forecast for this period